sensor_id;sensor_type;location;lat;lon;timestamp;temperature;humidity
12841;DHT22;6487;48.626;12.486;2022-08-18T00:02:01;21.40;99.90
12841;DHT22;6487;48.626;12.486;2022-08-18T00:04:32;21.60;99.90
12841;DHT22;6487;48.626;12.486;2022-08-18T00:07:18;21.70;99.90
12841;DHT22;6487;48.626;12.486;2022-08-18T00:09:49;21.80;99.90
12841;DHT22;6487;48.626;12.486;2022-08-18T00:12:20;21.90;99.90
12841;DHT22;6487;48.626;12.486;2022-08-18T00:14:51;21.90;99.90
12841;DHT22;6487;48.626;12.486;2022-08-18T00:17:20;21.90;99.90
12841;DHT22;6487;48.626;12.486;2022-08-18T00:19:49;21.90;98.20
12841;DHT22;6487;48.626;12.486;2022-08-18T00:22:19;22.00;98.70
12841;DHT22;6487;48.626;12.486;2022-08-18T00:24:51;22.00;98.90
12841;DHT22;6487;48.626;12.486;2022-08-18T00:27:23;21.90;99.80
12841;DHT22;6487;48.626;12.486;2022-08-18T00:29:55;21.80;99.10
12841;DHT22;6487;48.626;12.486;2022-08-18T00:32:27;21.80;98.80
12841;DHT22;6487;48.626;12.486;2022-08-18T00:35:04;21.60;99.90
12841;DHT22;6487;48.626;12.486;2022-08-18T00:37:34;21.60;99.90
12841;DHT22;6487;48.626;12.486;2022-08-18T00:40:06;21.50;99.90
12841;DHT22;6487;48.626;12.486;2022-08-18T00:42:41;21.40;99.90
12841;DHT22;6487;48.626;12.486;2022-08-18T00:45:17;21.40;99.90
12841;DHT22;6487;48.626;12.486;2022-08-18T00:47:47;21.30;99.90
12841;DHT22;6487;48.626;12.486;2022-08-18T00:50:18;21.10;99.90
12841;DHT22;6487;48.626;12.486;2022-08-18T00:52:53;21.30;99.90
12841;DHT22;6487;48.626;12.486;2022-08-18T00:55:26;21.30;99.90
12841;DHT22;6487;48.626;12.486;2022-08-18T00:58:01;21.30;99.90
12841;DHT22;6487;48.626;12.486;2022-08-18T01:00:32;21.30;99.90
12841;DHT22;6487;48.626;12.486;2022-08-18T01:03:05;21.00;99.90
12841;DHT22;6487;48.626;12.486;2022-08-18T01:05:42;21.20;99.90
12841;DHT22;6487;48.626;12.486;2022-08-18T01:08:15;21.20;99.90
12841;DHT22;6487;48.626;12.486;2022-08-18T01:10:56;21.10;99.90
12841;DHT22;6487;48.626;12.486;2022-08-18T01:13:30;21.10;99.90
12841;DHT22;6487;48.626;12.486;2022-08-18T01:16:00;21.00;99.90
12841;DHT22;6487;48.626;12.486;2022-08-18T01:18:49;21.00;99.90
12841;DHT22;6487;48.626;12.486;2022-08-18T01:21:39;20.90;99.90
12841;DHT22;6487;48.626;12.486;2022-08-18T01:24:23;21.00;99.90
12841;DHT22;6487;48.626;12.486;2022-08-18T01:27:17;21.10;99.90
12841;DHT22;6487;48.626;12.486;2022-08-18T01:29:45;21.00;99.90
12841;DHT22;6487;48.626;12.486;2022-08-18T01:32:16;20.90;99.90
12841;DHT22;6487;48.626;12.486;2022-08-18T01:34:46;20.80;99.90
12841;DHT22;6487;48.626;12.486;2022-08-18T01:37:17;20.90;99.90
12841;DHT22;6487;48.626;12.486;2022-08-18T01:39:48;20.90;99.90
12841;DHT22;6487;48.626;12.486;2022-08-18T01:42:37;21.00;99.90
12841;DHT22;6487;48.626;12.486;2022-08-18T01:45:10;21.00;99.90
12841;DHT22;6487;48.626;12.486;2022-08-18T01:47:39;20.90;99.90
12841;DHT22;6487;48.626;12.486;2022-08-18T01:50:24;20.90;99.90
12841;DHT22;6487;48.626;12.486;2022-08-18T01:52:53;20.90;99.90
12841;DHT22;6487;48.626;12.486;2022-08-18T01:55:22;20.90;99.90
12841;DHT22;6487;48.626;12.486;2022-08-18T01:57:54;20.90;99.90
12841;DHT22;6487;48.626;12.486;2022-08-18T02:00:23;20.90;99.90
12841;DHT22;6487;48.626;12.486;2022-08-18T02:02:52;20.90;99.90
12841;DHT22;6487;48.626;12.486;2022-08-18T02:08:04;20.50;99.90
12841;DHT22;6487;48.626;12.486;2022-08-18T02:10:34;20.50;99.90
12841;DHT22;6487;48.626;12.486;2022-08-18T02:13:03;20.60;99.90
12841;DHT22;6487;48.626;12.486;2022-08-18T02:15:32;20.60;99.90
12841;DHT22;6487;48.626;12.486;2022-08-18T02:18:00;20.70;99.90
12841;DHT22;6487;48.626;12.486;2022-08-18T02:20:29;20.80;99.90
12841;DHT22;6487;48.626;12.486;2022-08-18T02:22:58;20.60;99.90
12841;DHT22;6487;48.626;12.486;2022-08-18T02:25:26;20.70;99.90
12841;DHT22;6487;48.626;12.486;2022-08-18T02:27:56;20.50;99.90
12841;DHT22;6487;48.626;12.486;2022-08-18T02:30:25;20.40;99.90
12841;DHT22;6487;48.626;12.486;2022-08-18T02:32:53;20.50;99.90
12841;DHT22;6487;48.626;12.486;2022-08-18T02:35:22;20.40;99.90
12841;DHT22;6487;48.626;12.486;2022-08-18T02:37:50;20.50;99.90
12841;DHT22;6487;48.626;12.486;2022-08-18T02:40:20;20.50;99.90
12841;DHT22;6487;48.626;12.486;2022-08-18T02:42:48;20.50;99.90
12841;DHT22;6487;48.626;12.486;2022-08-18T02:45:20;20.40;99.90
12841;DHT22;6487;48.626;12.486;2022-08-18T02:47:51;20.30;99.90
12841;DHT22;6487;48.626;12.486;2022-08-18T02:50:20;20.40;99.90
12841;DHT22;6487;48.626;12.486;2022-08-18T02:52:48;20.20;99.90
12841;DHT22;6487;48.626;12.486;2022-08-18T02:55:17;20.20;99.90
12841;DHT22;6487;48.626;12.486;2022-08-18T02:57:47;20.20;99.90
12841;DHT22;6487;48.626;12.486;2022-08-18T03:00:20;20.30;99.90
12841;DHT22;6487;48.626;12.486;2022-08-18T03:02:50;20.20;99.90
12841;DHT22;6487;48.626;12.486;2022-08-18T03:05:19;20.20;99.90
12841;DHT22;6487;48.626;12.486;2022-08-18T03:07:47;20.20;99.90
12841;DHT22;6487;48.626;12.486;2022-08-18T03:10:17;20.20;99.90
12841;DHT22;6487;48.626;12.486;2022-08-18T03:12:59;20.30;99.90
12841;DHT22;6487;48.626;12.486;2022-08-18T03:15:29;20.20;99.90
12841;DHT22;6487;48.626;12.486;2022-08-18T03:17:58;20.20;99.90
12841;DHT22;6487;48.626;12.486;2022-08-18T03:20:28;20.20;99.90
12841;DHT22;6487;48.626;12.486;2022-08-18T03:22:58;20.10;99.90
12841;DHT22;6487;48.626;12.486;2022-08-18T03:25:42;20.00;99.90
12841;DHT22;6487;48.626;12.486;2022-08-18T03:28:11;20.00;99.90
12841;DHT22;6487;48.626;12.486;2022-08-18T03:30:41;20.10;99.90
12841;DHT22;6487;48.626;12.486;2022-08-18T03:33:10;19.70;99.90
12841;DHT22;6487;48.626;12.486;2022-08-18T03:35:38;19.50;99.90
12841;DHT22;6487;48.626;12.486;2022-08-18T03:38:07;19.40;99.90
12841;DHT22;6487;48.626;12.486;2022-08-18T03:40:36;19.40;99.90
12841;DHT22;6487;48.626;12.486;2022-08-18T03:43:05;19.50;99.90
12841;DHT22;6487;48.626;12.486;2022-08-18T03:45:54;19.50;99.90
12841;DHT22;6487;48.626;12.486;2022-08-18T03:48:27;19.60;99.90
12841;DHT22;6487;48.626;12.486;2022-08-18T03:51:02;19.60;99.90
12841;DHT22;6487;48.626;12.486;2022-08-18T03:53:32;19.70;99.90
12841;DHT22;6487;48.626;12.486;2022-08-18T03:56:03;19.80;99.90
12841;DHT22;6487;48.626;12.486;2022-08-18T03:58:35;19.80;99.90
12841;DHT22;6487;48.626;12.486;2022-08-18T04:01:05;19.80;99.90
12841;DHT22;6487;48.626;12.486;2022-08-18T04:03:33;19.80;99.90
12841;DHT22;6487;48.626;12.486;2022-08-18T04:06:03;19.70;99.90
12841;DHT22;6487;48.626;12.486;2022-08-18T04:08:37;19.70;99.90
12841;DHT22;6487;48.626;12.486;2022-08-18T04:11:06;19.70;99.90
12841;DHT22;6487;48.626;12.486;2022-08-18T04:13:34;19.70;99.90
12841;DHT22;6487;48.626;12.486;2022-08-18T04:16:05;19.70;99.90
12841;DHT22;6487;48.626;12.486;2022-08-18T04:18:34;19.60;99.90
12841;DHT22;6487;48.626;12.486;2022-08-18T04:21:04;19.50;99.90
12841;DHT22;6487;48.626;12.486;2022-08-18T04:23:34;19.60;99.90
12841;DHT22;6487;48.626;12.486;2022-08-18T04:26:10;19.50;99.90
12841;DHT22;6487;48.626;12.486;2022-08-18T04:28:45;19.60;99.90
12841;DHT22;6487;48.626;12.486;2022-08-18T04:31:15;19.50;99.90
12841;DHT22;6487;48.626;12.486;2022-08-18T04:33:45;19.50;99.90
12841;DHT22;6487;48.626;12.486;2022-08-18T04:36:14;19.60;99.90
12841;DHT22;6487;48.626;12.486;2022-08-18T04:38:46;19.60;99.90
12841;DHT22;6487;48.626;12.486;2022-08-18T04:41:15;19.60;99.90
12841;DHT22;6487;48.626;12.486;2022-08-18T04:43:44;19.50;99.90
12841;DHT22;6487;48.626;12.486;2022-08-18T04:46:15;19.50;99.90
12841;DHT22;6487;48.626;12.486;2022-08-18T04:48:50;19.50;99.90
12841;DHT22;6487;48.626;12.486;2022-08-18T04:51:26;19.60;99.90
12841;DHT22;6487;48.626;12.486;2022-08-18T04:54:15;19.60;99.90
12841;DHT22;6487;48.626;12.486;2022-08-18T04:56:43;19.60;99.90
12841;DHT22;6487;48.626;12.486;2022-08-18T04:59:13;19.60;99.90
12841;DHT22;6487;48.626;12.486;2022-08-18T05:01:43;19.60;99.90
12841;DHT22;6487;48.626;12.486;2022-08-18T05:04:15;19.60;99.90
12841;DHT22;6487;48.626;12.486;2022-08-18T05:06:44;19.60;99.90
12841;DHT22;6487;48.626;12.486;2022-08-18T05:09:14;19.60;99.90
12841;DHT22;6487;48.626;12.486;2022-08-18T05:11:49;19.60;99.90
12841;DHT22;6487;48.626;12.486;2022-08-18T05:14:18;19.70;99.90
12841;DHT22;6487;48.626;12.486;2022-08-18T05:16:48;19.70;99.90
12841;DHT22;6487;48.626;12.486;2022-08-18T05:19:19;19.70;99.90
12841;DHT22;6487;48.626;12.486;2022-08-18T05:21:53;19.70;99.90
12841;DHT22;6487;48.626;12.486;2022-08-18T05:24:28;19.80;99.90
12841;DHT22;6487;48.626;12.486;2022-08-18T05:27:04;19.80;99.90
12841;DHT22;6487;48.626;12.486;2022-08-18T05:29:34;19.90;99.90
12841;DHT22;6487;48.626;12.486;2022-08-18T05:32:13;19.90;99.90
12841;DHT22;6487;48.626;12.486;2022-08-18T05:35:03;19.90;99.90
12841;DHT22;6487;48.626;12.486;2022-08-18T05:37:38;20.00;99.90
12841;DHT22;6487;48.626;12.486;2022-08-18T05:40:13;20.00;99.90
12841;DHT22;6487;48.626;12.486;2022-08-18T05:42:42;20.10;99.90
12841;DHT22;6487;48.626;12.486;2022-08-18T05:45:14;20.10;99.90
12841;DHT22;6487;48.626;12.486;2022-08-18T05:47:45;20.20;99.90
12841;DHT22;6487;48.626;12.486;2022-08-18T05:50:16;20.30;99.90
12841;DHT22;6487;48.626;12.486;2022-08-18T05:52:52;20.40;99.90
12841;DHT22;6487;48.626;12.486;2022-08-18T05:55:28;20.40;99.90
12841;DHT22;6487;48.626;12.486;2022-08-18T05:58:19;20.50;99.90
12841;DHT22;6487;48.626;12.486;2022-08-18T06:01:03;20.60;99.90
12841;DHT22;6487;48.626;12.486;2022-08-18T06:03:39;20.70;99.90
12841;DHT22;6487;48.626;12.486;2022-08-18T06:06:17;20.80;99.90
12841;DHT22;6487;48.626;12.486;2022-08-18T06:08:52;20.90;99.90
12841;DHT22;6487;48.626;12.486;2022-08-18T06:11:23;21.00;99.90
12841;DHT22;6487;48.626;12.486;2022-08-18T06:13:52;21.10;99.90
12841;DHT22;6487;48.626;12.486;2022-08-18T06:16:36;21.10;99.90
12841;DHT22;6487;48.626;12.486;2022-08-18T06:22:17;21.30;99.90
12841;DHT22;6487;48.626;12.486;2022-08-18T06:24:57;21.50;99.90
12841;DHT22;6487;48.626;12.486;2022-08-18T06:27:37;21.60;99.90
12841;DHT22;6487;48.626;12.486;2022-08-18T06:30:20;21.70;99.90
12841;DHT22;6487;48.626;12.486;2022-08-18T06:33:08;21.70;99.90
12841;DHT22;6487;48.626;12.486;2022-08-18T06:35:45;21.70;99.90
12841;DHT22;6487;48.626;12.486;2022-08-18T06:38:32;21.80;99.90
12841;DHT22;6487;48.626;12.486;2022-08-18T06:41:10;21.80;99.90
12841;DHT22;6487;48.626;12.486;2022-08-18T06:44:05;21.90;99.90
12841;DHT22;6487;48.626;12.486;2022-08-18T06:46:41;22.10;99.90
12841;DHT22;6487;48.626;12.486;2022-08-18T06:49:17;22.20;99.90
12841;DHT22;6487;48.626;12.486;2022-08-18T06:51:53;22.30;99.90
12841;DHT22;6487;48.626;12.486;2022-08-18T06:54:27;22.50;99.90
12841;DHT22;6487;48.626;12.486;2022-08-18T06:56:57;22.60;99.90
12841;DHT22;6487;48.626;12.486;2022-08-18T06:59:27;22.70;99.90
12841;DHT22;6487;48.626;12.486;2022-08-18T07:01:59;22.80;99.90
12841;DHT22;6487;48.626;12.486;2022-08-18T07:04:32;22.90;99.90
12841;DHT22;6487;48.626;12.486;2022-08-18T07:07:18;22.90;99.90
12841;DHT22;6487;48.626;12.486;2022-08-18T07:09:50;23.00;99.90
12841;DHT22;6487;48.626;12.486;2022-08-18T07:12:22;23.00;99.90
12841;DHT22;6487;48.626;12.486;2022-08-18T07:15:00;23.20;99.90
12841;DHT22;6487;48.626;12.486;2022-08-18T07:17:33;23.20;99.90
12841;DHT22;6487;48.626;12.486;2022-08-18T07:20:19;23.20;99.90
12841;DHT22;6487;48.626;12.486;2022-08-18T07:22:58;23.30;99.90
12841;DHT22;6487;48.626;12.486;2022-08-18T07:25:38;23.30;99.90
12841;DHT22;6487;48.626;12.486;2022-08-18T07:28:26;23.30;99.90
12841;DHT22;6487;48.626;12.486;2022-08-18T07:31:11;23.40;99.90
12841;DHT22;6487;48.626;12.486;2022-08-18T07:33:49;23.40;99.90
12841;DHT22;6487;48.626;12.486;2022-08-18T07:36:24;23.40;99.90
12841;DHT22;6487;48.626;12.486;2022-08-18T07:39:02;23.40;99.90
12841;DHT22;6487;48.626;12.486;2022-08-18T07:41:39;23.40;99.90
12841;DHT22;6487;48.626;12.486;2022-08-18T07:44:19;23.40;99.90
12841;DHT22;6487;48.626;12.486;2022-08-18T07:46:57;23.30;99.90
12841;DHT22;6487;48.626;12.486;2022-08-18T07:49:32;23.20;99.90
12841;DHT22;6487;48.626;12.486;2022-08-18T07:52:04;23.30;99.90
12841;DHT22;6487;48.626;12.486;2022-08-18T07:55:03;23.20;99.90
12841;DHT22;6487;48.626;12.486;2022-08-18T07:57:46;23.20;99.90
12841;DHT22;6487;48.626;12.486;2022-08-18T08:00:23;23.30;99.90
12841;DHT22;6487;48.626;12.486;2022-08-18T08:03:25;23.30;99.90
12841;DHT22;6487;48.626;12.486;2022-08-18T08:06:04;23.30;99.90
12841;DHT22;6487;48.626;12.486;2022-08-18T08:08:42;23.40;99.70
12841;DHT22;6487;48.626;12.486;2022-08-18T08:11:22;23.40;99.30
12841;DHT22;6487;48.626;12.486;2022-08-18T08:14:03;23.60;99.20
12841;DHT22;6487;48.626;12.486;2022-08-18T08:16:45;23.80;99.90
12841;DHT22;6487;48.626;12.486;2022-08-18T08:19:38;23.80;99.50
12841;DHT22;6487;48.626;12.486;2022-08-18T08:22:32;23.80;99.40
12841;DHT22;6487;48.626;12.486;2022-08-18T08:25:09;24.10;99.50
12841;DHT22;6487;48.626;12.486;2022-08-18T08:28:13;24.20;99.30
12841;DHT22;6487;48.626;12.486;2022-08-18T08:30:58;24.20;98.60
12841;DHT22;6487;48.626;12.486;2022-08-18T08:33:55;24.40;98.00
12841;DHT22;6487;48.626;12.486;2022-08-18T08:36:34;24.40;97.90
12841;DHT22;6487;48.626;12.486;2022-08-18T08:39:09;24.70;98.30
12841;DHT22;6487;48.626;12.486;2022-08-18T08:41:45;24.90;97.70
12841;DHT22;6487;48.626;12.486;2022-08-18T08:44:21;25.10;97.00
12841;DHT22;6487;48.626;12.486;2022-08-18T08:46:55;25.00;96.90
12841;DHT22;6487;48.626;12.486;2022-08-18T08:49:31;25.20;96.80
12841;DHT22;6487;48.626;12.486;2022-08-18T08:52:08;25.20;96.30
12841;DHT22;6487;48.626;12.486;2022-08-18T08:54:47;25.30;96.30
12841;DHT22;6487;48.626;12.486;2022-08-18T08:57:21;25.50;96.20
12841;DHT22;6487;48.626;12.486;2022-08-18T08:59:56;25.70;96.20
12841;DHT22;6487;48.626;12.486;2022-08-18T09:02:33;25.80;94.70
12841;DHT22;6487;48.626;12.486;2022-08-18T09:05:17;26.00;94.90
12841;DHT22;6487;48.626;12.486;2022-08-18T09:08:18;26.30;94.40
12841;DHT22;6487;48.626;12.486;2022-08-18T09:14:46;26.60;93.50
12841;DHT22;6487;48.626;12.486;2022-08-18T09:17:44;26.90;91.80
12841;DHT22;6487;48.626;12.486;2022-08-18T09:20:55;26.90;91.80
12841;DHT22;6487;48.626;12.486;2022-08-18T09:23:33;27.00;91.80
12841;DHT22;6487;48.626;12.486;2022-08-18T09:26:25;27.20;92.80
12841;DHT22;6487;48.626;12.486;2022-08-18T09:29:18;27.40;91.30
12841;DHT22;6487;48.626;12.486;2022-08-18T09:35:35;27.60;91.10
12841;DHT22;6487;48.626;12.486;2022-08-18T09:38:20;27.50;91.30
12841;DHT22;6487;48.626;12.486;2022-08-18T09:41:22;27.10;89.90
12841;DHT22;6487;48.626;12.486;2022-08-18T09:44:12;27.30;91.10
12841;DHT22;6487;48.626;12.486;2022-08-18T09:46:56;27.30;90.50
12841;DHT22;6487;48.626;12.486;2022-08-18T09:49:40;27.50;90.40
12841;DHT22;6487;48.626;12.486;2022-08-18T09:52:54;27.40;90.20
12841;DHT22;6487;48.626;12.486;2022-08-18T09:55:54;27.40;89.50
12841;DHT22;6487;48.626;12.486;2022-08-18T09:58:50;27.40;90.80
12841;DHT22;6487;48.626;12.486;2022-08-18T10:01:34;27.60;90.40
12841;DHT22;6487;48.626;12.486;2022-08-18T10:04:26;27.40;89.40
12841;DHT22;6487;48.626;12.486;2022-08-18T10:07:31;27.50;90.40
12841;DHT22;6487;48.626;12.486;2022-08-18T10:10:20;27.90;90.10
12841;DHT22;6487;48.626;12.486;2022-08-18T10:13:16;28.20;90.60
12841;DHT22;6487;48.626;12.486;2022-08-18T10:16:02;28.50;90.50
12841;DHT22;6487;48.626;12.486;2022-08-18T10:19:07;28.60;87.90
12841;DHT22;6487;48.626;12.486;2022-08-18T10:22:03;28.70;90.10
12841;DHT22;6487;48.626;12.486;2022-08-18T10:24:37;29.00;87.40
12841;DHT22;6487;48.626;12.486;2022-08-18T10:27:36;29.20;88.60
12841;DHT22;6487;48.626;12.486;2022-08-18T10:30:43;28.80;85.60
12841;DHT22;6487;48.626;12.486;2022-08-18T10:34:03;29.10;88.40
12841;DHT22;6487;48.626;12.486;2022-08-18T10:36:49;29.40;85.40
12841;DHT22;6487;48.626;12.486;2022-08-18T10:39:20;29.70;86.00
12841;DHT22;6487;48.626;12.486;2022-08-18T10:41:57;29.70;82.10
12841;DHT22;6487;48.626;12.486;2022-08-18T10:44:36;29.70;82.30
12841;DHT22;6487;48.626;12.486;2022-08-18T10:47:19;30.00;83.10
12841;DHT22;6487;48.626;12.486;2022-08-18T10:50:00;29.70;80.80
12841;DHT22;6487;48.626;12.486;2022-08-18T10:52:49;29.40;81.20
12841;DHT22;6487;48.626;12.486;2022-08-18T10:55:49;29.30;82.30
12841;DHT22;6487;48.626;12.486;2022-08-18T10:58:45;29.50;81.30
12841;DHT22;6487;48.626;12.486;2022-08-18T11:04:28;29.50;82.80
12841;DHT22;6487;48.626;12.486;2022-08-18T11:07:07;29.80;84.10
12841;DHT22;6487;48.626;12.486;2022-08-18T11:09:39;30.10;80.50
12841;DHT22;6487;48.626;12.486;2022-08-18T11:12:43;30.30;82.70
12841;DHT22;6487;48.626;12.486;2022-08-18T11:15:40;30.40;80.70
12841;DHT22;6487;48.626;12.486;2022-08-18T11:18:26;30.70;82.90
12841;DHT22;6487;48.626;12.486;2022-08-18T11:21:30;30.60;79.90
12841;DHT22;6487;48.626;12.486;2022-08-18T11:24:11;30.80;79.90
12841;DHT22;6487;48.626;12.486;2022-08-18T11:26:44;31.00;77.20
12841;DHT22;6487;48.626;12.486;2022-08-18T11:29:25;31.00;76.90
12841;DHT22;6487;48.626;12.486;2022-08-18T11:32:06;31.00;76.50
12841;DHT22;6487;48.626;12.486;2022-08-18T11:34:40;31.10;77.60
12841;DHT22;6487;48.626;12.486;2022-08-18T11:37:23;31.20;77.50
12841;DHT22;6487;48.626;12.486;2022-08-18T11:40:33;31.40;76.60
12841;DHT22;6487;48.626;12.486;2022-08-18T11:43:25;31.40;72.70
12841;DHT22;6487;48.626;12.486;2022-08-18T11:46:12;31.50;72.00
12841;DHT22;6487;48.626;12.486;2022-08-18T11:48:46;31.10;70.30
12841;DHT22;6487;48.626;12.486;2022-08-18T11:51:22;30.90;69.40
12841;DHT22;6487;48.626;12.486;2022-08-18T11:53:55;30.70;68.60
12841;DHT22;6487;48.626;12.486;2022-08-18T11:56:28;30.80;69.00
12841;DHT22;6487;48.626;12.486;2022-08-18T11:59:05;31.20;71.60
12841;DHT22;6487;48.626;12.486;2022-08-18T12:01:39;31.30;70.00
12841;DHT22;6487;48.626;12.486;2022-08-18T12:04:24;31.30;71.60
12841;DHT22;6487;48.626;12.486;2022-08-18T12:07:01;31.30;67.90
12841;DHT22;6487;48.626;12.486;2022-08-18T12:09:36;31.60;69.10
12841;DHT22;6487;48.626;12.486;2022-08-18T12:12:28;31.70;68.30
12841;DHT22;6487;48.626;12.486;2022-08-18T12:15:01;30.90;68.20
12841;DHT22;6487;48.626;12.486;2022-08-18T12:17:43;31.00;67.50
12841;DHT22;6487;48.626;12.486;2022-08-18T12:20:33;31.00;71.30
12841;DHT22;6487;48.626;12.486;2022-08-18T12:23:02;31.30;71.80
12841;DHT22;6487;48.626;12.486;2022-08-18T12:25:31;31.50;71.40
12841;DHT22;6487;48.626;12.486;2022-08-18T12:27:59;31.50;68.20
12841;DHT22;6487;48.626;12.486;2022-08-18T12:30:28;31.40;68.00
12841;DHT22;6487;48.626;12.486;2022-08-18T12:32:57;31.20;67.90
12841;DHT22;6487;48.626;12.486;2022-08-18T12:35:37;31.10;68.30
12841;DHT22;6487;48.626;12.486;2022-08-18T12:38:08;31.00;68.30
12841;DHT22;6487;48.626;12.486;2022-08-18T12:40:41;31.30;69.30
12841;DHT22;6487;48.626;12.486;2022-08-18T12:43:10;31.20;70.10
12841;DHT22;6487;48.626;12.486;2022-08-18T12:45:39;31.20;69.10
12841;DHT22;6487;48.626;12.486;2022-08-18T12:48:08;31.40;69.30
12841;DHT22;6487;48.626;12.486;2022-08-18T12:50:39;31.30;66.30
12841;DHT22;6487;48.626;12.486;2022-08-18T12:53:21;31.30;69.00
12841;DHT22;6487;48.626;12.486;2022-08-18T12:55:56;31.40;67.20
12841;DHT22;6487;48.626;12.486;2022-08-18T12:58:26;31.50;67.50
12841;DHT22;6487;48.626;12.486;2022-08-18T13:00:56;31.30;67.50
12841;DHT22;6487;48.626;12.486;2022-08-18T13:03:24;31.50;67.90
12841;DHT22;6487;48.626;12.486;2022-08-18T13:05:54;31.50;66.20
12841;DHT22;6487;48.626;12.486;2022-08-18T13:08:25;31.50;65.60
12841;DHT22;6487;48.626;12.486;2022-08-18T13:11:13;31.30;63.80
12841;DHT22;6487;48.626;12.486;2022-08-18T13:13:50;31.40;67.80
12841;DHT22;6487;48.626;12.486;2022-08-18T13:16:23;31.60;67.20
12841;DHT22;6487;48.626;12.486;2022-08-18T13:19:05;31.60;66.10
12841;DHT22;6487;48.626;12.486;2022-08-18T13:21:38;31.50;66.20
12841;DHT22;6487;48.626;12.486;2022-08-18T13:24:09;31.50;67.70
12841;DHT22;6487;48.626;12.486;2022-08-18T13:26:41;31.60;65.40
12841;DHT22;6487;48.626;12.486;2022-08-18T13:29:12;31.60;64.40
12841;DHT22;6487;48.626;12.486;2022-08-18T13:31:44;31.70;65.70
12841;DHT22;6487;48.626;12.486;2022-08-18T13:34:24;31.60;65.20
12841;DHT22;6487;48.626;12.486;2022-08-18T13:36:57;31.40;65.50
12841;DHT22;6487;48.626;12.486;2022-08-18T13:39:26;31.30;66.70
12841;DHT22;6487;48.626;12.486;2022-08-18T13:42:00;31.30;66.70
12841;DHT22;6487;48.626;12.486;2022-08-18T13:44:49;31.30;66.90
12841;DHT22;6487;48.626;12.486;2022-08-18T13:47:19;31.30;66.90
12841;DHT22;6487;48.626;12.486;2022-08-18T13:49:49;31.40;66.80
12841;DHT22;6487;48.626;12.486;2022-08-18T13:52:26;31.40;68.00
12841;DHT22;6487;48.626;12.486;2022-08-18T13:55:12;31.40;65.90
12841;DHT22;6487;48.626;12.486;2022-08-18T13:57:43;31.30;66.20
12841;DHT22;6487;48.626;12.486;2022-08-18T14:00:20;31.10;67.10
12841;DHT22;6487;48.626;12.486;2022-08-18T14:02:57;30.90;69.10
12841;DHT22;6487;48.626;12.486;2022-08-18T14:05:29;31.00;69.00
12841;DHT22;6487;48.626;12.486;2022-08-18T14:08:19;30.80;71.00
12841;DHT22;6487;48.626;12.486;2022-08-18T14:10:51;30.70;67.80
12841;DHT22;6487;48.626;12.486;2022-08-18T14:13:22;30.70;67.70
12841;DHT22;6487;48.626;12.486;2022-08-18T14:15:56;30.50;69.70
12841;DHT22;6487;48.626;12.486;2022-08-18T14:18:25;30.60;71.20
12841;DHT22;6487;48.626;12.486;2022-08-18T14:20:57;30.50;70.70
12841;DHT22;6487;48.626;12.486;2022-08-18T14:23:50;30.40;70.10
12841;DHT22;6487;48.626;12.486;2022-08-18T14:26:40;30.30;71.30
12841;DHT22;6487;48.626;12.486;2022-08-18T14:29:17;30.30;73.00
12841;DHT22;6487;48.626;12.486;2022-08-18T14:32:06;30.20;72.20
12841;DHT22;6487;48.626;12.486;2022-08-18T14:34:43;30.10;71.80
12841;DHT22;6487;48.626;12.486;2022-08-18T14:37:17;30.20;72.40
12841;DHT22;6487;48.626;12.486;2022-08-18T14:39:48;30.20;73.50
12841;DHT22;6487;48.626;12.486;2022-08-18T14:42:19;30.20;74.10
12841;DHT22;6487;48.626;12.486;2022-08-18T14:45:08;30.10;76.10
12841;DHT22;6487;48.626;12.486;2022-08-18T14:48:00;30.10;74.80
12841;DHT22;6487;48.626;12.486;2022-08-18T14:50:37;30.10;74.10
12841;DHT22;6487;48.626;12.486;2022-08-18T14:53:16;30.00;73.60
12841;DHT22;6487;48.626;12.486;2022-08-18T14:55:47;30.00;71.80
12841;DHT22;6487;48.626;12.486;2022-08-18T14:58:18;29.90;72.90
12841;DHT22;6487;48.626;12.486;2022-08-18T15:00:50;29.90;71.70
12841;DHT22;6487;48.626;12.486;2022-08-18T15:03:25;29.80;72.70
12841;DHT22;6487;48.626;12.486;2022-08-18T15:05:59;29.70;72.80
12841;DHT22;6487;48.626;12.486;2022-08-18T15:08:31;29.70;73.50
12841;DHT22;6487;48.626;12.486;2022-08-18T15:11:04;29.70;74.10
12841;DHT22;6487;48.626;12.486;2022-08-18T15:13:39;29.80;74.40
12841;DHT22;6487;48.626;12.486;2022-08-18T15:16:11;29.80;72.40
12841;DHT22;6487;48.626;12.486;2022-08-18T15:18:40;29.70;72.10
12841;DHT22;6487;48.626;12.486;2022-08-18T15:21:09;29.80;72.30
12841;DHT22;6487;48.626;12.486;2022-08-18T15:24:05;29.70;71.60
12841;DHT22;6487;48.626;12.486;2022-08-18T15:26:53;29.70;72.70
12841;DHT22;6487;48.626;12.486;2022-08-18T15:29:32;29.80;70.90
12841;DHT22;6487;48.626;12.486;2022-08-18T15:32:01;29.80;75.40
12841;DHT22;6487;48.626;12.486;2022-08-18T15:34:36;29.80;73.20
12841;DHT22;6487;48.626;12.486;2022-08-18T15:37:17;29.80;74.80
12841;DHT22;6487;48.626;12.486;2022-08-18T15:39:58;29.80;74.60
12841;DHT22;6487;48.626;12.486;2022-08-18T15:42:33;29.90;73.40
12841;DHT22;6487;48.626;12.486;2022-08-18T15:45:04;29.80;75.10
12841;DHT22;6487;48.626;12.486;2022-08-18T15:47:39;29.80;76.70
12841;DHT22;6487;48.626;12.486;2022-08-18T15:50:09;29.70;78.50
12841;DHT22;6487;48.626;12.486;2022-08-18T15:52:54;29.60;75.80
12841;DHT22;6487;48.626;12.486;2022-08-18T15:55:27;29.50;76.00
12841;DHT22;6487;48.626;12.486;2022-08-18T15:58:05;29.60;75.70
12841;DHT22;6487;48.626;12.486;2022-08-18T16:00:39;29.50;78.90
12841;DHT22;6487;48.626;12.486;2022-08-18T16:03:12;29.30;76.80
12841;DHT22;6487;48.626;12.486;2022-08-18T16:05:47;29.30;79.10
12841;DHT22;6487;48.626;12.486;2022-08-18T16:08:20;29.30;79.20
12841;DHT22;6487;48.626;12.486;2022-08-18T16:10:50;29.30;79.10
12841;DHT22;6487;48.626;12.486;2022-08-18T16:13:21;29.30;80.30
12841;DHT22;6487;48.626;12.486;2022-08-18T16:15:52;29.20;79.40
12841;DHT22;6487;48.626;12.486;2022-08-18T16:18:20;29.10;79.70
12841;DHT22;6487;48.626;12.486;2022-08-18T16:20:49;28.90;75.70
12841;DHT22;6487;48.626;12.486;2022-08-18T16:23:22;28.70;77.70
12841;DHT22;6487;48.626;12.486;2022-08-18T16:25:51;28.70;80.00
12841;DHT22;6487;48.626;12.486;2022-08-18T16:28:20;28.80;80.70
12841;DHT22;6487;48.626;12.486;2022-08-18T16:31:01;28.70;82.30
12841;DHT22;6487;48.626;12.486;2022-08-18T16:33:29;28.60;82.30
12841;DHT22;6487;48.626;12.486;2022-08-18T16:36:02;28.60;81.70
12841;DHT22;6487;48.626;12.486;2022-08-18T16:38:31;28.50;82.10
12841;DHT22;6487;48.626;12.486;2022-08-18T16:41:03;28.40;82.30
12841;DHT22;6487;48.626;12.486;2022-08-18T16:43:42;28.40;82.80
12841;DHT22;6487;48.626;12.486;2022-08-18T16:46:15;28.40;82.30
12841;DHT22;6487;48.626;12.486;2022-08-18T16:48:48;28.40;83.00